Time;durP1;ratioP1;P1;durP2;ratioP2;P2;SDS_P1;SDS_P2;PMS_P1;PMS_P2;Temp;Humidity;BMP_temperature;BMP_pressure;BME280_temperature;BME280_humidity;BME280_pressure;Samples;Min_cycle;Max_cycle;Signal;HPM_P1;HPM_P2
2022/12/24 00:00:28;;;;;;;11.85;3.13;;;;;;;;;;4975139;28;20278;-69
2022/12/24 00:02:53;;;;;;;34.20;4.47;;;;;;;;;;4978038;28;20024;-70
2022/12/24 00:05:18;;;;;;;16.70;2.90;;;;;;;;;;4974150;28;20278;-70
2022/12/24 00:07:44;;;;;;;26.45;4.65;;;;;;;;;;4979141;28;20453;-69
2022/12/24 00:10:09;;;;;;;44.53;6.00;;;;;;;;;;4978139;28;20026;-70
2022/12/24 00:12:34;;;;;;;18.42;3.53;;;;;;;;;;4975369;28;20274;-69
2022/12/24 00:14:59;;;;;;;34.63;4.47;;;;;;;;;;4976426;28;20054;-69
2022/12/24 00:17:25;;;;;;;45.05;5.40;;;;;;;;;;4980515;28;20026;-69
2022/12/24 00:19:50;;;;;;;32.97;4.65;;;;;;;;;;4978167;28;20042;-70
2022/12/24 00:22:15;;;;;;;30.93;4.63;;;;;;;;;;4976985;28;20093;-69
2022/12/24 00:24:40;;;;;;;44.38;5.07;;;;;;;;;;4982358;28;20682;-69
2022/12/24 00:27:05;;;;;;;36.75;5.28;;;;;;;;;;4980766;28;20023;-70
2022/12/24 00:29:31;;;;;;;39.33;5.60;;;;;;;;;;4976336;28;20094;-69
2022/12/24 00:31:57;;;;;;;43.90;5.22;;;;;;;;;;4983558;28;20022;-69
2022/12/24 00:34:23;;;;;;;49.05;7.30;;;;;;;;;;4977782;28;20034;-69
2022/12/24 00:36:48;;;;;;;35.65;5.22;;;;;;;;;;4982351;28;20030;-70
2022/12/24 00:39:13;;;;;;;51.80;5.97;;;;;;;;;;4972496;28;20030;-70
2022/12/24 00:41:39;;;;;;;35.92;5.72;;;;;;;;;;4973300;28;20022;-69
2022/12/24 00:44:05;;;;;;;36.07;6.20;;;;;;;;;;4979789;28;20113;-70
2022/12/24 00:46:31;;;;;;;40.28;5.88;;;;;;;;;;4974484;28;20262;-70
2022/12/24 00:48:56;;;;;;;37.58;4.97;;;;;;;;;;4976238;28;20027;-69
2022/12/24 00:51:22;;;;;;;29.27;4.50;;;;;;;;;;4977416;28;20029;-69
2022/12/24 00:53:47;;;;;;;45.80;5.63;;;;;;;;;;4981440;28;20041;-69
2022/12/24 00:56:13;;;;;;;37.72;5.57;;;;;;;;;;4979546;28;20490;-70
2022/12/24 00:58:38;;;;;;;40.73;4.87;;;;;;;;;;4975061;28;20019;-69
2022/12/24 01:01:03;;;;;;;25.85;4.20;;;;;;;;;;4979568;28;20290;-70
2022/12/24 01:03:34;;;;;;;42.92;5.32;;;;;;;;;;4977260;28;20472;-69
2022/12/24 01:06:03;;;;;;;43.72;6.68;;;;;;;;;;4973811;28;20022;-69
2022/12/24 01:08:28;;;;;;;32.92;4.53;;;;;;;;;;4975663;28;20039;-69
2022/12/24 01:10:53;;;;;;;45.40;5.07;;;;;;;;;;4977692;28;20038;-69
2022/12/24 01:13:19;;;;;;;31.20;5.90;;;;;;;;;;4983758;28;20386;-69
2022/12/24 01:15:44;;;;;;;48.22;5.10;;;;;;;;;;4978559;28;20077;-68
2022/12/24 01:18:09;;;;;;;38.60;5.07;;;;;;;;;;4979459;28;20018;-68
2022/12/24 01:20:34;;;;;;;50.37;6.80;;;;;;;;;;4976611;28;20288;-68
2022/12/24 01:23:00;;;;;;;29.80;3.67;;;;;;;;;;4985023;28;20257;-69
2022/12/24 01:25:25;;;;;;;43.50;6.40;;;;;;;;;;4983869;28;20280;-68
2022/12/24 01:27:50;;;;;;;34.13;4.93;;;;;;;;;;4976291;28;20026;-68
2022/12/24 01:30:15;;;;;;;29.50;3.13;;;;;;;;;;4974824;28;20694;-68
2022/12/24 01:32:41;;;;;;;34.25;5.75;;;;;;;;;;4983423;28;20321;-69
2022/12/24 01:35:06;;;;;;;34.25;6.13;;;;;;;;;;4979822;28;20613;-70
2022/12/24 01:37:31;;;;;;;25.27;4.05;;;;;;;;;;4972090;28;20054;-69
2022/12/24 01:43:22;;;;;;;32.40;5.30;;;;;;;;;;4980690;28;20093;-69
2022/12/24 01:45:39;;;;;;;42.97;4.53;;;;;;;;;;4983347;28;20084;-69
2022/12/24 01:48:06;;;;;;;46.88;5.22;;;;;;;;;;4955733;28;20062;-69
2022/12/24 01:50:31;;;;;;;39.15;6.57;;;;;;;;;;4981743;28;20434;-69
2022/12/24 01:52:56;;;;;;;36.23;4.40;;;;;;;;;;4978532;28;20054;-69
2022/12/24 01:55:22;;;;;;;34.55;5.18;;;;;;;;;;4977585;28;20270;-70
2022/12/24 01:57:50;;;;;;;27.02;3.00;;;;;;;;;;4981850;28;20038;-70
2022/12/24 02:00:15;;;;;;;23.73;4.05;;;;;;;;;;4980074;28;20018;-70
2022/12/24 02:02:42;;;;;;;28.13;5.32;;;;;;;;;;4982710;28;20104;-70
2022/12/24 02:05:14;;;;;;;27.85;4.18;;;;;;;;;;4984751;28;20102;-69
2022/12/24 02:07:39;;;;;;;24.67;4.03;;;;;;;;;;4977177;28;20019;-69
2022/12/24 02:10:09;;;;;;;18.17;2.28;;;;;;;;;;4980050;28;20037;-68
2022/12/24 02:12:35;;;;;;;34.70;4.88;;;;;;;;;;4981949;28;20029;-68
2022/12/24 02:15:00;;;;;;;37.70;5.88;;;;;;;;;;4987131;28;20026;-68
2022/12/24 02:17:55;;;;;;;39.20;5.13;;;;;;;;;;4979536;28;20382;-68
2022/12/24 02:20:23;;;;;;;17.30;2.80;;;;;;;;;;4931021;28;20031;-70
2022/12/24 02:23:07;;;;;;;24.25;4.65;;;;;;;;;;4984632;28;20057;-68
2022/12/24 02:25:35;;;;;;;29.98;5.97;;;;;;;;;;4982148;28;20625;-68
2022/12/24 02:28:06;;;;;;;31.85;3.47;;;;;;;;;;4981120;28;20360;-68
2022/12/24 02:30:40;;;;;;;22.48;3.35;;;;;;;;;;4978587;28;20057;-68
2022/12/24 02:33:08;;;;;;;26.40;4.82;;;;;;;;;;4975092;28;20029;-68
2022/12/24 02:35:45;;;;;;;30.48;4.57;;;;;;;;;;4979413;28;20054;-68
2022/12/24 02:38:22;;;;;;;35.65;4.35;;;;;;;;;;4983489;28;20045;-70
2022/12/24 02:40:56;;;;;;;35.97;6.43;;;;;;;;;;4985266;28;20462;-69
2022/12/24 02:43:23;;;;;;;36.33;4.88;;;;;;;;;;4983924;28;20555;-70
2022/12/24 02:45:51;;;;;;;35.75;5.90;;;;;;;;;;4988041;28;20533;-71
2022/12/24 02:48:18;;;;;;;40.90;5.13;;;;;;;;;;4978555;28;20041;-69
2022/12/24 02:50:57;;;;;;;27.38;5.82;;;;;;;;;;4989491;28;20030;-69
2022/12/24 02:53:22;;;;;;;38.88;4.68;;;;;;;;;;4979764;28;20022;-69
2022/12/24 02:55:54;;;;;;;36.63;5.27;;;;;;;;;;4985510;28;20014;-70
2022/12/24 02:58:48;;;;;;;37.10;4.68;;;;;;;;;;4977019;28;20714;-69
2022/12/24 03:01:32;;;;;;;39.42;5.38;;;;;;;;;;4930548;28;20031;-70
2022/12/24 03:04:16;;;;;;;19.48;2.67;;;;;;;;;;4976053;28;20074;-70
2022/12/24 03:07:05;;;;;;;28.88;3.20;;;;;;;;;;4979425;28;20515;-70
2022/12/24 03:09:54;;;;;;;41.17;4.45;;;;;;;;;;4965421;28;20081;-70
2022/12/24 03:12:21;;;;;;;29.80;4.68;;;;;;;;;;4969567;28;20114;-69
2022/12/24 03:14:47;;;;;;;35.97;4.95;;;;;;;;;;4982266;28;20088;-69
2022/12/24 03:17:13;;;;;;;26.55;3.95;;;;;;;;;;4980690;28;20030;-68
2022/12/24 03:19:38;;;;;;;30.20;4.40;;;;;;;;;;4978881;28;20093;-68
2022/12/24 03:22:06;;;;;;;20.35;2.88;;;;;;;;;;4980114;28;20033;-68
2022/12/24 03:24:31;;;;;;;29.67;3.92;;;;;;;;;;4980438;28;20037;-68
2022/12/24 03:26:58;;;;;;;22.70;4.38;;;;;;;;;;4976334;28;20635;-68
2022/12/24 03:29:23;;;;;;;29.30;4.00;;;;;;;;;;4981819;28;20061;-68
2022/12/24 03:31:50;;;;;;;24.38;2.92;;;;;;;;;;4984095;28;20034;-68
2022/12/24 03:34:16;;;;;;;35.85;5.65;;;;;;;;;;4978336;28;20018;-69
2022/12/24 03:36:42;;;;;;;21.35;3.45;;;;;;;;;;4980129;28;20498;-69
2022/12/24 03:39:08;;;;;;;31.75;3.67;;;;;;;;;;4979097;28;20101;-70
2022/12/24 03:41:33;;;;;;;18.40;3.00;;;;;;;;;;4983239;28;20386;-69
2022/12/24 03:43:58;;;;;;;27.08;3.33;;;;;;;;;;4978438;28;20022;-69
2022/12/24 03:46:23;;;;;;;23.67;2.87;;;;;;;;;;4986745;28;21772;-69
2022/12/24 03:48:49;;;;;;;30.58;3.47;;;;;;;;;;4979614;28;20285;-69
2022/12/24 03:51:18;;;;;;;21.30;3.17;;;;;;;;;;4981589;28;20027;-69
2022/12/24 03:53:43;;;;;;;19.98;3.30;;;;;;;;;;4982408;28;20352;-69
2022/12/24 03:56:09;;;;;;;14.20;2.20;;;;;;;;;;4975974;28;20033;-70
2022/12/24 03:58:34;;;;;;;12.88;3.17;;;;;;;;;;4983581;28;20030;-69
2022/12/24 04:00:59;;;;;;;22.33;2.40;;;;;;;;;;4978652;28;20506;-70
2022/12/24 04:03:24;;;;;;;14.52;3.03;;;;;;;;;;4973016;28;20278;-69
2022/12/24 04:05:59;;;;;;;24.13;2.90;;;;;;;;;;4980963;28;20026;-69
2022/12/24 04:08:24;;;;;;;13.93;3.40;;;;;;;;;;4974213;28;20278;-69
2022/12/24 04:10:49;;;;;;;23.77;3.97;;;;;;;;;;4976167;28;20442;-69
2022/12/24 04:13:15;;;;;;;9.93;1.60;;;;;;;;;;4978297;28;20293;-69
2022/12/24 04:15:40;;;;;;;11.53;2.73;;;;;;;;;;4976516;28;20321;-69
2022/12/24 04:18:05;;;;;;;9.57;2.07;;;;;;;;;;4980920;28;20281;-69
2022/12/24 04:20:30;;;;;;;15.30;2.17;;;;;;;;;;4980163;28;20250;-68
2022/12/24 04:22:55;;;;;;;13.60;3.30;;;;;;;;;;4980846;28;20324;-68
2022/12/24 04:25:20;;;;;;;13.23;1.97;;;;;;;;;;4976404;28;20286;-68
2022/12/24 04:27:46;;;;;;;16.48;3.83;;;;;;;;;;4974117;28;20270;-69
2022/12/24 04:30:11;;;;;;;12.40;2.27;;;;;;;;;;4979044;28;20026;-70
2022/12/24 04:32:36;;;;;;;17.20;2.38;;;;;;;;;;4979502;28;20281;-69
2022/12/24 04:35:01;;;;;;;13.18;1.90;;;;;;;;;;4983330;28;20034;-70
2022/12/24 04:37:27;;;;;;;15.47;2.27;;;;;;;;;;4974897;28;20032;-70
2022/12/24 04:39:52;;;;;;;8.52;1.42;;;;;;;;;;4984713;28;20265;-69
2022/12/24 04:42:17;;;;;;;13.20;2.10;;;;;;;;;;4978769;28;20145;-69
2022/12/24 04:44:42;;;;;;;12.85;1.98;;;;;;;;;;4977336;28;20639;-70
2022/12/24 04:47:09;;;;;;;13.55;2.30;;;;;;;;;;4976853;28;20411;-69
2022/12/24 04:49:34;;;;;;;13.35;2.13;;;;;;;;;;4975366;28;20026;-69
2022/12/24 04:51:59;;;;;;;12.67;1.57;;;;;;;;;;4974808;28;20022;-68
2022/12/24 04:54:25;;;;;;;10.35;1.75;;;;;;;;;;4976250;28;20255;-68
2022/12/24 04:56:50;;;;;;;17.02;2.50;;;;;;;;;;4983380;28;20631;-68
2022/12/24 04:59:15;;;;;;;11.35;2.15;;;;;;;;;;4980809;28;20023;-68
2022/12/24 05:01:40;;;;;;;3.87;1.63;;;;;;;;;;4984192;28;20478;-68
2022/12/24 05:04:05;;;;;;;6.80;1.67;;;;;;;;;;4978056;28;20309;-68
2022/12/24 05:06:31;;;;;;;22.73;2.27;;;;;;;;;;4977082;28;20276;-68
2022/12/24 05:08:56;;;;;;;18.60;2.83;;;;;;;;;;4984595;28;20686;-67
2022/12/24 05:11:22;;;;;;;13.57;2.03;;;;;;;;;;4979086;28;20023;-69
2022/12/24 05:13:47;;;;;;;20.10;2.78;;;;;;;;;;4983670;28;20050;-69
2022/12/24 05:16:13;;;;;;;7.53;1.50;;;;;;;;;;4980606;28;20034;-69
2022/12/24 05:18:38;;;;;;;18.77;2.95;;;;;;;;;;4983264;28;20031;-69
2022/12/24 05:21:12;;;;;;;17.33;2.17;;;;;;;;;;4985550;28;20098;-68
2022/12/24 05:26:25;;;;;;;16.50;2.25;;;;;;;;;;4976311;28;20104;-68
2022/12/24 05:28:51;;;;;;;15.20;2.03;;;;;;;;;;4988725;28;20577;-68
2022/12/24 05:31:16;;;;;;;19.73;2.08;;;;;;;;;;4984542;28;20394;-69
2022/12/24 05:33:42;;;;;;;20.70;2.85;;;;;;;;;;4988097;28;20030;-70
2022/12/24 05:36:07;;;;;;;20.63;3.07;;;;;;;;;;4984205;28;20039;-70
2022/12/24 05:38:32;;;;;;;10.82;4.00;;;;;;;;;;4982712;28;20793;-71
2022/12/24 05:40:58;;;;;;;15.50;2.35;;;;;;;;;;4982534;28;20026;-69
2022/12/24 05:43:23;;;;;;;8.93;1.43;;;;;;;;;;4978732;28;20026;-70
2022/12/24 05:45:48;;;;;;;15.90;2.83;;;;;;;;;;4984771;28;20280;-70
2022/12/24 05:48:13;;;;;;;7.50;1.93;;;;;;;;;;4975434;28;20348;-67
2022/12/24 05:50:39;;;;;;;17.40;2.30;;;;;;;;;;4978941;28;20771;-67
2022/12/24 05:53:04;;;;;;;15.25;2.67;;;;;;;;;;4983379;28;20282;-69
2022/12/24 05:55:30;;;;;;;9.25;2.13;;;;;;;;;;4988096;28;20014;-69
2022/12/24 05:57:55;;;;;;;11.35;1.85;;;;;;;;;;4960733;28;20077;-69
2022/12/24 06:00:20;;;;;;;12.20;2.83;;;;;;;;;;4986648;28;20015;-68
2022/12/24 06:02:45;;;;;;;25.98;2.97;;;;;;;;;;4982158;28;20435;-68
2022/12/24 06:05:10;;;;;;;19.67;2.00;;;;;;;;;;4987116;28;20097;-68
2022/12/24 06:07:36;;;;;;;14.60;2.60;;;;;;;;;;4984526;28;20281;-70
2022/12/24 06:10:01;;;;;;;12.70;1.97;;;;;;;;;;4980024;28;20038;-69
2022/12/24 06:12:26;;;;;;;7.45;1.50;;;;;;;;;;4980403;28;20797;-69
2022/12/24 06:14:51;;;;;;;11.80;1.97;;;;;;;;;;4982171;28;20026;-69
2022/12/24 06:17:17;;;;;;;12.13;1.80;;;;;;;;;;4986922;28;20630;-67
2022/12/24 06:19:43;;;;;;;15.57;2.92;;;;;;;;;;4990001;28;20114;-67
2022/12/24 06:22:08;;;;;;;15.35;2.88;;;;;;;;;;4987367;28;20019;-67
2022/12/24 06:24:33;;;;;;;21.60;3.00;;;;;;;;;;4984537;28;20071;-68
2022/12/24 06:26:58;;;;;;;28.92;3.83;;;;;;;;;;4979316;28;20033;-68
2022/12/24 06:29:24;;;;;;;14.37;2.50;;;;;;;;;;4982075;28;20158;-68
2022/12/24 06:31:49;;;;;;;24.43;4.00;;;;;;;;;;4990019;28;20265;-68
2022/12/24 06:34:14;;;;;;;26.73;4.33;;;;;;;;;;4976352;28;20686;-68
2022/12/24 06:36:39;;;;;;;21.77;3.60;;;;;;;;;;4980005;28;20293;-68
2022/12/24 06:39:04;;;;;;;20.35;2.95;;;;;;;;;;4981482;28;20285;-68
2022/12/24 06:41:30;;;;;;;19.88;3.03;;;;;;;;;;4963190;28;20088;-68
2022/12/24 06:43:55;;;;;;;23.50;3.10;;;;;;;;;;4988177;28;20050;-69
2022/12/24 06:46:20;;;;;;;25.75;3.90;;;;;;;;;;4987839;28;20747;-69
2022/12/24 06:48:46;;;;;;;18.73;3.78;;;;;;;;;;4980535;28;20031;-69
2022/12/24 06:51:12;;;;;;;27.20;4.22;;;;;;;;;;4979633;28;20019;-69
2022/12/24 06:53:37;;;;;;;32.47;3.33;;;;;;;;;;4965637;28;20114;-70
2022/12/24 06:56:03;;;;;;;4.70;1.10;;;;;;;;;;4966788;28;20026;-69
2022/12/24 06:58:29;;;;;;;32.63;3.90;;;;;;;;;;4984705;28;20104;-69
2022/12/24 07:00:54;;;;;;;22.48;3.08;;;;;;;;;;4969422;28;20387;-69
2022/12/24 07:03:19;;;;;;;32.83;5.20;;;;;;;;;;4980515;28;20057;-69
2022/12/24 07:05:44;;;;;;;19.07;3.10;;;;;;;;;;4978833;28;20751;-69
2022/12/24 07:08:09;;;;;;;15.67;3.47;;;;;;;;;;4977401;28;20278;-69
2022/12/24 07:10:34;;;;;;;28.33;5.07;;;;;;;;;;4980300;28;20269;-69
2022/12/24 07:13:00;;;;;;;38.33;4.82;;;;;;;;;;4978959;28;20855;-69
2022/12/24 07:15:25;;;;;;;37.75;5.63;;;;;;;;;;4975027;28;20018;-69
2022/12/24 07:17:50;;;;;;;30.73;3.93;;;;;;;;;;4978745;28;20040;-69
2022/12/24 07:20:15;;;;;;;37.20;4.83;;;;;;;;;;4982654;28;20357;-69
2022/12/24 07:22:41;;;;;;;31.83;3.53;;;;;;;;;;4986871;28;20284;-69
2022/12/24 07:25:06;;;;;;;33.22;4.63;;;;;;;;;;4986566;28;20102;-69
2022/12/24 07:27:31;;;;;;;30.38;5.32;;;;;;;;;;4983598;28;20359;-70
2022/12/24 07:29:56;;;;;;;23.07;3.80;;;;;;;;;;4987029;28;20096;-69
2022/12/24 07:32:22;;;;;;;34.40;3.53;;;;;;;;;;4980351;28;20373;-69
2022/12/24 07:34:47;;;;;;;35.20;5.87;;;;;;;;;;4986348;28;20999;-70
2022/12/24 07:37:12;;;;;;;20.47;2.97;;;;;;;;;;4983082;28;20270;-69
2022/12/24 07:39:37;;;;;;;26.07;4.00;;;;;;;;;;4976591;28;20377;-69
2022/12/24 07:42:05;;;;;;;32.67;4.43;;;;;;;;;;4980436;28;20746;-69
2022/12/24 07:44:30;;;;;;;5.07;1.50;;;;;;;;;;4988479;28;20262;-69
2022/12/24 07:46:55;;;;;;;27.60;3.67;;;;;;;;;;4984570;28;20029;-69
2022/12/24 07:49:20;;;;;;;15.73;3.07;;;;;;;;;;4983029;28;20332;-69
2022/12/24 07:51:46;;;;;;;28.17;4.13;;;;;;;;;;4982886;28;20316;-69
2022/12/24 07:54:11;;;;;;;26.55;4.65;;;;;;;;;;4985731;28;20296;-69
2022/12/24 07:56:36;;;;;;;27.88;4.53;;;;;;;;;;4984073;28;20063;-69
2022/12/24 07:59:01;;;;;;;43.13;6.13;;;;;;;;;;4984928;28;20060;-69
2022/12/24 08:01:26;;;;;;;17.80;2.05;;;;;;;;;;4982160;28;20759;-69
2022/12/24 08:03:53;;;;;;;34.63;4.72;;;;;;;;;;4986375;28;20018;-69
2022/12/24 08:06:18;;;;;;;32.95;4.47;;;;;;;;;;4984794;28;20513;-69
2022/12/24 08:08:43;;;;;;;34.55;4.50;;;;;;;;;;4985308;28;20034;-70
2022/12/24 08:11:09;;;;;;;33.10;6.10;;;;;;;;;;4977380;28;20388;-69
2022/12/24 08:13:34;;;;;;;28.05;4.55;;;;;;;;;;4979765;28;20292;-69
2022/12/24 08:15:59;;;;;;;31.47;4.00;;;;;;;;;;4983284;28;20041;-69
2022/12/24 08:18:24;;;;;;;24.55;4.72;;;;;;;;;;4984904;28;20376;-69
2022/12/24 08:20:50;;;;;;;33.20;2.67;;;;;;;;;;4980710;28;20037;-69
2022/12/24 08:23:15;;;;;;;17.50;3.30;;;;;;;;;;4975373;28;20023;-69
2022/12/24 08:25:42;;;;;;;40.47;5.45;;;;;;;;;;4978545;28;21702;-69
2022/12/24 08:28:07;;;;;;;41.25;5.90;;;;;;;;;;4974923;28;20027;-69
2022/12/24 08:30:32;;;;;;;31.20;4.53;;;;;;;;;;4961757;28;20027;-69
2022/12/24 08:32:57;;;;;;;38.55;5.15;;;;;;;;;;4977418;28;20899;-69
2022/12/24 08:35:22;;;;;;;36.43;6.20;;;;;;;;;;4983219;28;20382;-69
2022/12/24 08:37:48;;;;;;;34.70;5.53;;;;;;;;;;4983598;28;20301;-69
2022/12/24 08:40:13;;;;;;;22.97;5.90;;;;;;;;;;4982139;28;20019;-70
2022/12/24 08:42:38;;;;;;;46.72;5.13;;;;;;;;;;4981931;28;20313;-69
2022/12/24 08:45:03;;;;;;;42.90;6.63;;;;;;;;;;4977975;28;20053;-69
2022/12/24 08:47:28;;;;;;;46.83;7.45;;;;;;;;;;4963604;28;20266;-69
2022/12/24 08:49:54;;;;;;;52.43;10.00;;;;;;;;;;4981207;28;20081;-70
2022/12/24 08:52:19;;;;;;;46.57;9.77;;;;;;;;;;4979160;28;20288;-70
2022/12/24 08:54:44;;;;;;;41.50;9.43;;;;;;;;;;4979857;28;20316;-70
2022/12/24 08:57:09;;;;;;;38.10;8.48;;;;;;;;;;4977109;28;20352;-70
2022/12/24 08:59:34;;;;;;;43.40;8.00;;;;;;;;;;4983186;28;20030;-70
2022/12/24 09:02:00;;;;;;;31.77;5.15;;;;;;;;;;4983681;28;20034;-70
2022/12/24 09:04:25;;;;;;;36.70;5.07;;;;;;;;;;4985777;28;20479;-69
2022/12/24 09:06:50;;;;;;;36.00;6.40;;;;;;;;;;4988766;28;20037;-70
2022/12/24 09:09:16;;;;;;;31.07;5.00;;;;;;;;;;4979531;28;20022;-69
2022/12/24 09:11:41;;;;;;;32.90;4.50;;;;;;;;;;4965414;28;21014;-69
2022/12/24 09:14:06;;;;;;;38.20;5.07;;;;;;;;;;4988557;28;20574;-69
2022/12/24 09:16:31;;;;;;;23.63;5.18;;;;;;;;;;4979488;28;20022;-70
2022/12/24 09:18:57;;;;;;;38.92;5.35;;;;;;;;;;4979623;28;20499;-70
2022/12/24 09:21:22;;;;;;;35.85;6.50;;;;;;;;;;4985964;28;20093;-69
2022/12/24 09:23:48;;;;;;;38.20;4.77;;;;;;;;;;4985744;28;20112;-69
2022/12/24 09:26:31;;;;;;;33.20;5.00;;;;;;;;;;4983375;28;20266;-70
2022/12/24 09:28:57;;;;;;;36.92;5.82;;;;;;;;;;4965926;28;20022;-69
2022/12/24 09:31:22;;;;;;;46.20;5.95;;;;;;;;;;4982411;28;20105;-69
2022/12/24 09:33:49;;;;;;;50.47;5.57;;;;;;;;;;4964443;28;20081;-69
2022/12/24 09:36:14;;;;;;;28.55;4.72;;;;;;;;;;4983820;28;20019;-70
2022/12/24 09:38:39;;;;;;;37.08;5.72;;;;;;;;;;4979925;28;20033;-70
2022/12/24 09:41:19;;;;;;;30.73;6.18;;;;;;;;;;4980256;28;20023;-69
2022/12/24 09:43:51;;;;;;;36.53;4.63;;;;;;;;;;4967687;28;20027;-69
2022/12/24 09:46:21;;;;;;;37.00;4.90;;;;;;;;;;4983783;28;20018;-69
2022/12/24 09:48:48;;;;;;;33.60;5.15;;;;;;;;;;4984465;28;20499;-70
2022/12/24 09:51:26;;;;;;;42.88;5.40;;;;;;;;;;4980195;28;20022;-70
2022/12/24 09:54:02;;;;;;;28.27;4.38;;;;;;;;;;4989274;28;20088;-69
2022/12/24 09:56:37;;;;;;;32.55;3.78;;;;;;;;;;4981336;28;20027;-70
2022/12/24 09:59:04;;;;;;;32.03;5.30;;;;;;;;;;4981671;28;20018;-69
2022/12/24 10:01:30;;;;;;;30.75;4.43;;;;;;;;;;4971250;28;20108;-69
2022/12/24 10:03:57;;;;;;;39.58;6.55;;;;;;;;;;4987406;28;20479;-69
2022/12/24 10:06:24;;;;;;;30.40;5.47;;;;;;;;;;4980254;28;20027;-69
2022/12/24 10:08:49;;;;;;;33.28;5.10;;;;;;;;;;4980062;28;20046;-70
2022/12/24 10:11:25;;;;;;;27.57;5.70;;;;;;;;;;4982712;28;20061;-70
2022/12/24 10:13:50;;;;;;;25.88;4.10;;;;;;;;;;4982425;28;20344;-70
2022/12/24 10:16:15;;;;;;;44.43;6.00;;;;;;;;;;4980299;28;20402;-69
2022/12/24 10:18:47;;;;;;;49.00;4.90;;;;;;;;;;4962338;28;20278;-69
2022/12/24 10:21:20;;;;;;;15.93;2.50;;;;;;;;;;4980771;28;20274;-69
2022/12/24 10:23:54;;;;;;;32.63;5.35;;;;;;;;;;4963770;28;20032;-69
2022/12/24 10:26:28;;;;;;;24.40;5.13;;;;;;;;;;4983742;28;20395;-69
2022/12/24 10:28:58;;;;;;;44.75;5.97;;;;;;;;;;4979326;28;20412;-70
2022/12/24 10:31:33;;;;;;;40.90;5.45;;;;;;;;;;4985055;28;20034;-70
2022/12/24 10:34:01;;;;;;;45.30;5.35;;;;;;;;;;4981836;28;20094;-70
2022/12/24 10:36:29;;;;;;;36.03;6.45;;;;;;;;;;4977100;28;20464;-69
2022/12/24 10:38:55;;;;;;;33.58;5.30;;;;;;;;;;4984458;28;20415;-69
2022/12/24 10:41:20;;;;;;;36.85;5.45;;;;;;;;;;4982141;28;20029;-69
2022/12/24 10:43:46;;;;;;;21.80;3.40;;;;;;;;;;4979431;28;20106;-70
2022/12/24 10:46:30;;;;;;;5.90;2.08;;;;;;;;;;4978399;28;20014;-69
2022/12/24 10:49:00;;;;;;;33.88;5.07;;;;;;;;;;4981316;28;20072;-69
2022/12/24 10:51:25;;;;;;;;;;;;;;;;;;4984283;28;20033;-70
2022/12/24 10:53:55;;;;;;;44.17;7.07;;;;;;;;;;4983643;28;19909;-69
2022/12/24 10:56:20;;;;;;;29.85;5.82;;;;;;;;;;4981164;28;20269;-69
2022/12/24 10:58:50;;;;;;;41.80;5.57;;;;;;;;;;4976219;28;20034;-69
2022/12/24 11:01:15;;;;;;;42.95;5.15;;;;;;;;;;4983024;28;20022;-69
2022/12/24 11:03:41;;;;;;;33.35;5.18;;;;;;;;;;4980267;28;20030;-70
2022/12/24 11:06:06;;;;;;;31.88;5.35;;;;;;;;;;4974380;28;20018;-70
2022/12/24 11:08:33;;;;;;;51.53;6.85;;;;;;;;;;4981155;28;20097;-69
2022/12/24 11:10:58;;;;;;;40.78;5.13;;;;;;;;;;4982153;28;20058;-69
2022/12/24 11:13:28;;;;;;;44.97;4.97;;;;;;;;;;4984176;28;20486;-69
2022/12/24 11:16:02;;;;;;;33.60;3.88;;;;;;;;;;4979161;28;20046;-69
2022/12/24 11:18:27;;;;;;;41.70;4.97;;;;;;;;;;4976969;28;20031;-70
2022/12/24 11:20:52;;;;;;;31.90;4.50;;;;;;;;;;4980491;28;20022;-69
2022/12/24 11:23:17;;;;;;;40.88;5.43;;;;;;;;;;4979533;28;20026;-69
2022/12/24 11:25:47;;;;;;;39.08;5.68;;;;;;;;;;4973135;28;20077;-69
2022/12/24 11:28:23;;;;;;;29.38;4.78;;;;;;;;;;4978597;28;20022;-69
2022/12/24 11:31:02;;;;;;;32.78;6.22;;;;;;;;;;4979520;28;20031;-69
2022/12/24 11:33:28;;;;;;;38.90;4.93;;;;;;;;;;4977310;28;20057;-69
2022/12/24 11:35:56;;;;;;;26.08;3.90;;;;;;;;;;4980916;28;20092;-69
2022/12/24 11:38:23;;;;;;;35.90;5.10;;;;;;;;;;4978124;28;20022;-69
2022/12/24 11:40:50;;;;;;;30.25;4.40;;;;;;;;;;4980576;28;20026;-71
2022/12/24 11:43:17;;;;;;;24.73;5.30;;;;;;;;;;4977951;28;20061;-69
2022/12/24 11:45:49;;;;;;;53.92;6.10;;;;;;;;;;4990423;28;20077;-69
2022/12/24 11:48:29;;;;;;;35.90;6.35;;;;;;;;;;4976630;28;20058;-70
2022/12/24 11:50:55;;;;;;;44.55;7.28;;;;;;;;;;4983429;28;20026;-70
2022/12/24 11:53:23;;;;;;;30.30;5.20;;;;;;;;;;4976057;28;20555;-70
2022/12/24 11:55:50;;;;;;;33.25;5.38;;;;;;;;;;4977886;28;20029;-70
2022/12/24 11:58:34;;;;;;;31.83;5.63;;;;;;;;;;4975004;28;20423;-70
2022/12/24 12:01:16;;;;;;;38.05;6.90;;;;;;;;;;4981189;28;20030;-70
2022/12/24 12:03:44;;;;;;;17.55;3.30;;;;;;;;;;4979058;28;20107;-70
2022/12/24 12:06:15;;;;;;;24.13;4.95;;;;;;;;;;4984576;28;20026;-70
2022/12/24 12:08:41;;;;;;;32.97;4.15;;;;;;;;;;4978800;28;20092;-69
2022/12/24 12:11:11;;;;;;;32.05;5.15;;;;;;;;;;4983494;28;20474;-70
2022/12/24 12:13:38;;;;;;;34.80;6.10;;;;;;;;;;4981163;28;20030;-70
2022/12/24 12:16:03;;;;;;;50.30;6.85;;;;;;;;;;4980146;28;20025;-70
2022/12/24 12:18:35;;;;;;;34.37;5.40;;;;;;;;;;4976896;28;20022;-70
2022/12/24 12:21:05;;;;;;;40.42;6.43;;;;;;;;;;4978936;28;20080;-69
2022/12/24 12:23:33;;;;;;;38.28;6.13;;;;;;;;;;4976001;28;20467;-69
2022/12/24 12:26:00;;;;;;;41.28;5.60;;;;;;;;;;4977459;28;20030;-69
2022/12/24 12:28:35;;;;;;;31.17;5.55;;;;;;;;;;4979306;28;20031;-70
2022/12/24 12:31:03;;;;;;;36.60;6.45;;;;;;;;;;4978190;28;20097;-69
2022/12/24 12:33:30;;;;;;;24.05;3.53;;;;;;;;;;4978973;28;20038;-69
2022/12/24 12:35:58;;;;;;;30.73;6.10;;;;;;;;;;4979731;28;20145;-69
2022/12/24 12:38:24;;;;;;;13.95;3.17;;;;;;;;;;4976099;28;20595;-69
2022/12/24 12:41:08;;;;;;;38.58;6.47;;;;;;;;;;4978223;28;20028;-70
2022/12/24 12:43:47;;;;;;;40.70;5.07;;;;;;;;;;4980158;28;20034;-69
2022/12/24 12:46:19;;;;;;;42.10;5.28;;;;;;;;;;4976467;28;20077;-69
2022/12/24 12:48:59;;;;;;;39.50;6.03;;;;;;;;;;4983777;28;20406;-70
2022/12/24 12:51:27;;;;;;;38.58;5.43;;;;;;;;;;4980464;28;20453;-71
2022/12/24 12:54:11;;;;;;;26.70;4.20;;;;;;;;;;4976482;28;20355;-70
2022/12/24 12:56:36;;;;;;;36.08;4.22;;;;;;;;;;4977475;28;20475;-70
2022/12/24 12:59:01;;;;;;;29.20;4.85;;;;;;;;;;4980419;28;20041;-69
2022/12/24 13:01:38;;;;;;;29.40;4.07;;;;;;;;;;4983814;28;20022;-69
2022/12/24 13:04:13;;;;;;;36.55;5.30;;;;;;;;;;4976939;28;20278;-70
2022/12/24 13:07:01;;;;;;;25.85;4.57;;;;;;;;;;4966768;28;20019;-69
2022/12/24 13:09:39;;;;;;;35.75;6.05;;;;;;;;;;4957890;28;20035;-70
2022/12/24 13:12:25;;;;;;;36.42;5.80;;;;;;;;;;4985906;28;20136;-69
2022/12/24 13:15:09;;;;;;;34.58;5.40;;;;;;;;;;4986756;28;20023;-69
2022/12/24 13:18:02;;;;;;;41.90;6.35;;;;;;;;;;4982347;28;20025;-69
2022/12/24 13:20:29;;;;;;;32.95;5.13;;;;;;;;;;4980602;28;20069;-70
2022/12/24 13:23:03;;;;;;;36.13;5.03;;;;;;;;;;4983247;28;20030;-69
2022/12/24 13:25:38;;;;;;;26.33;4.78;;;;;;;;;;4986581;28;20494;-69
2022/12/24 13:28:19;;;;;;;35.53;6.18;;;;;;;;;;4979709;28;20027;-69
2022/12/24 13:30:45;;;;;;;38.83;5.53;;;;;;;;;;4992353;28;20534;-69
2022/12/24 13:33:11;;;;;;;27.85;4.20;;;;;;;;;;4983502;28;20027;-69
2022/12/24 13:35:37;;;;;;;25.33;4.68;;;;;;;;;;4983853;28;20101;-69
2022/12/24 13:38:21;;;;;;;37.15;5.22;;;;;;;;;;4990134;28;20022;-70
2022/12/24 13:40:46;;;;;;;39.80;5.95;;;;;;;;;;4989866;28;20027;-70
2022/12/24 13:43:11;;;;;;;35.20;6.67;;;;;;;;;;4978080;28;20094;-70
2022/12/24 13:45:36;;;;;;;33.85;5.40;;;;;;;;;;4977425;28;20642;-70
2022/12/24 13:48:04;;;;;;;21.37;3.73;;;;;;;;;;4978858;28;20030;-69
2022/12/24 13:50:40;;;;;;;31.77;5.32;;;;;;;;;;4975536;28;20296;-69
2022/12/24 13:53:17;;;;;;;30.73;5.30;;;;;;;;;;4988869;28;20399;-69
2022/12/24 13:55:49;;;;;;;27.40;5.07;;;;;;;;;;4994592;28;20125;-70
2022/12/24 13:58:17;;;;;;;36.58;4.38;;;;;;;;;;4985874;28;20070;-70
2022/12/24 14:00:43;;;;;;;39.10;5.78;;;;;;;;;;4980524;28;20113;-69
2022/12/24 14:03:11;;;;;;;37.35;5.63;;;;;;;;;;4983302;28;20085;-69
2022/12/24 14:05:37;;;;;;;36.75;5.25;;;;;;;;;;4982603;28;20025;-70
2022/12/24 14:08:04;;;;;;;31.10;3.80;;;;;;;;;;4982038;28;20034;-70
2022/12/24 14:10:30;;;;;;;29.45;4.88;;;;;;;;;;4981000;28;20410;-70
2022/12/24 14:12:56;;;;;;;25.80;4.18;;;;;;;;;;4981739;28;20117;-70
2022/12/24 14:15:40;;;;;;;23.48;3.95;;;;;;;;;;4978741;28;20790;-69
2022/12/24 14:18:05;;;;;;;36.30;5.45;;;;;;;;;;4975098;28;20056;-69
2022/12/24 14:20:31;;;;;;;25.60;4.07;;;;;;;;;;4980499;28;20025;-69
2022/12/24 14:22:56;;;;;;;15.75;3.17;;;;;;;;;;4981182;28;20022;-69
2022/12/24 14:25:22;;;;;;;26.95;4.28;;;;;;;;;;4978925;28;20487;-69
2022/12/24 14:27:52;;;;;;;34.00;5.25;;;;;;;;;;4985688;28;20018;-69
2022/12/24 14:30:18;;;;;;;29.70;4.55;;;;;;;;;;4978708;28;20019;-70
2022/12/24 14:32:44;;;;;;;37.83;5.80;;;;;;;;;;4977930;28;20383;-70
2022/12/24 14:48:50;;;;;;;30.02;5.22;;;;;;;;;;4953553;28;20424;-70
2022/12/24 14:51:30;;;;;;;38.08;5.03;;;;;;;;;;4950065;28;20016;-70
2022/12/24 14:53:55;;;;;;;;;;;;;;;;;;4952168;28;20073;-70